Time;durP1;ratioP1;P1;durP2;ratioP2;P2;SDS_P1;SDS_P2;PMS_P1;PMS_P2;Temp;Humidity;BMP_temperature;BMP_pressure;BME280_temperature;BME280_humidity;BME280_pressure;Samples;Min_cycle;Max_cycle;Signal;HPM_P1;HPM_P2
2021/04/12 00:00:30;;;;;;;3.40;2.83;;;5.60;78.80;;;;;;5034736;28;20900;-70
2021/04/12 00:03:01;;;;;;;4.57;3.27;;;5.50;78.90;;;;;;5034830;28;20508;-70
2021/04/12 00:05:41;;;;;;;3.00;2.70;;;5.40;79.30;;;;;;5035192;28;20438;-70
2021/04/12 00:08:17;;;;;;;5.33;3.20;;;5.20;80.20;;;;;;5034903;28;20430;-70
2021/04/12 00:10:56;;;;;;;5.57;2.97;;;5.10;81.20;;;;;;5034515;28;20905;-70
2021/04/12 00:13:29;;;;;;;3.13;2.83;;;5.10;82.00;;;;;;5034908;28;20448;-70
2021/04/12 00:16:02;;;;;;;8.97;3.87;;;5.10;82.30;;;;;;5034765;28;20442;-70
2021/04/12 00:18:32;;;;;;;3.60;2.90;;;5.10;82.30;;;;;;5034398;28;20931;-70
2021/04/12 00:21:04;;;;;;;4.70;3.57;;;5.00;82.00;;;;;;5034449;28;20435;-70
2021/04/12 00:23:36;;;;;;;4.30;3.00;;;5.00;82.30;;;;;;5034511;28;20462;-70
2021/04/12 00:26:09;;;;;;;3.93;3.03;;;5.10;84.90;;;;;;5034631;28;20438;-70
2021/04/12 00:28:40;;;;;;;5.00;3.10;;;5.30;85.20;;;;;;5034525;28;20438;-70
2021/04/12 00:31:12;;;;;;;3.77;3.40;;;5.30;84.20;;;;;;5034413;28;20431;-71
2021/04/12 00:33:44;;;;;;;6.73;3.80;;;5.30;83.80;;;;;;5034378;28;20845;-70
2021/04/12 00:36:19;;;;;;;4.57;3.10;;;5.30;82.00;;;;;;5033941;28;20900;-70
2021/04/12 00:38:55;;;;;;;7.33;3.67;;;5.30;81.80;;;;;;5033997;28;20912;-70
2021/04/12 00:42:03;;;;;;;4.00;3.00;;;5.20;81.50;;;;;;5034201;28;20470;-70
2021/04/12 00:44:48;;;;;;;3.60;3.27;;;5.00;81.80;;;;;;5026736;28;20482;-70
2021/04/12 00:47:30;;;;;;;5.80;3.83;;;4.90;82.30;;;;;;5034167;28;20434;-70
2021/04/12 00:50:12;;;;;;;6.93;3.53;;;4.80;83.10;;;;;;5034134;28;20437;-70
2021/04/12 00:53:04;;;;;;;4.53;3.80;;;4.80;83.60;;;;;;5033989;28;20492;-70
2021/04/12 00:55:36;;;;;;;7.07;4.17;;;4.80;84.50;;;;;;5034021;28;20847;-70
2021/04/12 00:58:14;;;;;;;4.60;4.20;;;4.70;84.30;;;;;;5033969;28;20457;-70
2021/04/12 01:00:45;;;;;;;9.53;4.50;;;4.70;84.00;;;;;;5033641;28;20930;-70
2021/04/12 01:03:26;;;;;;;11.57;4.70;;;4.70;84.00;;;;;;5034014;28;20489;-70
2021/04/12 01:06:01;;;;;;;6.57;4.63;;;4.60;84.30;;;;;;5033824;28;20433;-70
2021/04/12 01:08:58;;;;;;;7.00;4.70;;;4.60;84.40;;;;;;5033893;28;20444;-70
2021/04/12 01:11:49;;;;;;;12.47;5.80;;;4.50;84.60;;;;;;5033697;28;20469;-70
2021/04/12 01:14:58;;;;;;;7.00;5.53;;;4.40;84.80;;;;;;5033763;28;20425;-70
2021/04/12 01:17:56;;;;;;;8.07;6.40;;;4.40;85.00;;;;;;5018423;28;20448;-70
2021/04/12 01:20:57;;;;;;;13.87;7.37;;;4.40;85.70;;;;;;5018308;28;20466;-70
2021/04/12 01:24:01;;;;;;;8.10;6.53;;;4.50;86.50;;;;;;5033248;28;20967;-70
2021/04/12 01:26:54;;;;;;;8.90;6.33;;;4.50;86.00;;;;;;5033653;28;20804;-70
2021/04/12 01:30:00;;;;;;;7.87;6.03;;;4.40;85.50;;;;;;5033246;28;20433;-70
2021/04/12 01:33:01;;;;;;;8.90;6.07;;;4.50;85.80;;;;;;4977699;28;20903;-70
2021/04/12 01:35:41;;;;;;;5.57;4.90;;;4.50;85.70;;;;;;5033509;28;20461;-70
2021/04/12 01:38:27;;;;;;;5.43;4.90;;;4.60;85.50;;;;;;5033187;28;20969;-70
2021/04/12 01:41:15;;;;;;;5.97;5.37;;;4.60;85.80;;;;;;5033383;28;20430;-71
2021/04/12 01:44:28;;;;;;;9.93;5.07;;;4.70;85.70;;;;;;5030717;28;20477;-70
2021/04/12 01:47:04;;;;;;;8.03;5.27;;;4.70;84.90;;;;;;4972252;28;20500;-70
2021/04/12 01:49:48;;;;;;;6.00;3.77;;;4.60;84.60;;;;;;4976625;28;20491;-70
2021/04/12 01:52:43;;;;;;;6.43;5.10;;;4.70;85.50;;;;;;5014861;28;20465;-70
2021/04/12 01:55:28;;;;;;;5.20;4.73;;;4.90;85.80;;;;;;5037005;28;20460;-70
2021/04/12 01:58:15;;;;;;;7.00;5.00;;;4.90;85.30;;;;;;5037310;28;20426;-70
2021/04/12 02:01:07;;;;;;;8.60;6.17;;;4.90;84.40;;;;;;5036920;28;20441;-70
2021/04/12 02:03:48;;;;;;;5.83;5.20;;;4.80;83.50;;;;;;5034366;28;21013;-70
2021/04/12 02:06:39;;;;;;;5.50;4.03;;;4.80;83.50;;;;;;5037197;28;20452;-70
2021/04/12 02:09:50;;;;;;;9.80;5.30;;;4.80;83.70;;;;;;5036778;28;20975;-70
2021/04/12 02:12:32;;;;;;;7.00;5.00;;;4.80;83.90;;;;;;5021418;28;20496;-70
2021/04/12 02:15:19;;;;;;;5.13;4.23;;;4.70;84.10;;;;;;5036699;28;21002;-70
2021/04/12 02:17:59;;;;;;;5.17;3.90;;;4.70;83.20;;;;;;5036953;28;20440;-70
2021/04/12 02:20:38;;;;;;;5.57;3.67;;;4.70;84.10;;;;;;5036940;28;20491;-70
2021/04/12 02:23:14;;;;;;;4.97;4.33;;;4.80;84.60;;;;;;5036345;28;20480;-70
2021/04/12 02:26:01;;;;;;;5.00;3.57;;;4.90;85.20;;;;;;5036895;28;20441;-70
2021/04/12 02:28:40;;;;;;;4.70;3.77;;;5.00;84.70;;;;;;5036969;28;20479;-70
2021/04/12 02:31:21;;;;;;;8.57;3.93;;;5.10;84.50;;;;;;5036874;28;20472;-71
2021/04/12 02:33:57;;;;;;;3.60;3.17;;;5.10;83.90;;;;;;5036559;28;20429;-71
2021/04/12 02:36:35;;;;;;;5.20;3.50;;;5.00;83.80;;;;;;5036845;28;20488;-70
2021/04/12 02:39:12;;;;;;;5.93;4.03;;;4.90;83.50;;;;;;5036879;28;20427;-70
2021/04/12 02:41:54;;;;;;;6.50;3.10;;;5.00;83.60;;;;;;5036611;28;20473;-71
2021/04/12 02:44:44;;;;;;;6.17;3.10;;;5.10;84.00;;;;;;5036190;28;20991;-70
2021/04/12 02:47:38;;;;;;;4.67;2.93;;;5.20;83.70;;;;;;5036603;28;20453;-70
2021/04/12 02:50:20;;;;;;;5.93;3.60;;;5.20;83.20;;;;;;5036276;28;20912;-70
2021/04/12 02:53:01;;;;;;;3.90;3.10;;;5.10;82.10;;;;;;5036495;28;20473;-70
2021/04/12 02:55:48;;;;;;;7.43;3.87;;;5.00;82.50;;;;;;5036881;28;20442;-70
2021/04/12 02:58:45;;;;;;;5.27;4.00;;;5.00;83.50;;;;;;5035594;28;20454;-70
2021/04/12 03:01:30;;;;;;;4.30;2.97;;;5.10;83.50;;;;;;5036021;28;20496;-71
2021/04/12 03:04:09;;;;;;;4.17;3.33;;;5.00;82.90;;;;;;5036098;28;20879;-71
2021/04/12 03:07:18;;;;;;;5.50;3.80;;;4.80;82.00;;;;;;5036380;28;20433;-71
2021/04/12 03:10:04;;;;;;;4.50;3.93;;;4.60;82.20;;;;;;5036089;28;20437;-71
2021/04/12 03:13:15;;;;;;;6.37;3.73;;;4.40;83.00;;;;;;5035386;28;20992;-70
2021/04/12 03:15:52;;;;;;;5.60;3.80;;;4.20;84.00;;;;;;5000143;28;20831;-70
2021/04/12 03:18:49;;;;;;;5.17;3.50;;;4.10;84.90;;;;;;5035600;28;20429;-70
2021/04/12 03:21:37;;;;;;;4.77;3.83;;;4.10;85.50;;;;;;5035714;28;20488;-70
2021/04/12 03:24:16;;;;;;;6.93;4.37;;;4.20;87.00;;;;;;5035747;28;20479;-70
2021/04/12 03:27:11;;;;;;;5.23;3.73;;;4.20;86.50;;;;;;5035996;28;20484;-70
2021/04/12 03:29:45;;;;;;;4.47;4.03;;;4.20;86.40;;;;;;5035801;28;20436;-70
2021/04/12 03:32:42;;;;;;;13.03;5.10;;;4.20;85.60;;;;;;5035212;28;20473;-70
2021/04/12 03:35:16;;;;;;;8.63;4.17;;;4.20;86.10;;;;;;5035278;28;20440;-70
2021/04/12 03:38:14;;;;;;;6.33;4.10;;;4.20;86.10;;;;;;5035488;28;20440;-70
2021/04/12 03:40:43;;;;;;;7.57;4.50;;;4.20;86.40;;;;;;5035487;28;20448;-70
2021/04/12 03:43:23;;;;;;;4.30;3.90;;;4.20;86.00;;;;;;5035205;28;20555;-70
2021/04/12 03:46:24;;;;;;;8.63;4.17;;;4.20;85.90;;;;;;5035271;28;20428;-70
2021/04/12 03:49:22;;;;;;;5.40;4.97;;;4.30;87.50;;;;;;5035214;28;20428;-70
2021/04/12 03:52:13;;;;;;;4.63;4.10;;;4.30;86.00;;;;;;5035126;28;20462;-70
2021/04/12 03:54:48;;;;;;;6.40;5.20;;;4.20;84.90;;;;;;5035134;28;20430;-70
2021/04/12 03:57:50;;;;;;;5.40;4.77;;;4.10;85.00;;;;;;5035116;28;20433;-70
2021/04/12 04:00:43;;;;;;;5.93;5.07;;;4.00;85.50;;;;;;5035086;28;20796;-70
2021/04/12 04:03:35;;;;;;;9.23;5.73;;;3.90;86.10;;;;;;5032287;28;20533;-70
2021/04/12 04:06:22;;;;;;;7.43;5.10;;;3.90;86.70;;;;;;5021838;28;20457;-70
2021/04/12 04:09:09;;;;;;;10.33;6.20;;;3.90;86.50;;;;;;5034922;28;20436;-70
2021/04/12 04:11:49;;;;;;;7.40;6.03;;;3.80;86.70;;;;;;5034059;28;20977;-70
2021/04/12 04:14:43;;;;;;;9.03;5.30;;;3.60;86.90;;;;;;5034514;28;20429;-70
2021/04/12 04:17:30;;;;;;;6.70;6.00;;;3.60;87.60;;;;;;5034730;28;20433;-70
2021/04/12 04:20:14;;;;;;;6.10;5.50;;;3.50;87.90;;;;;;5034313;28;20801;-70
2021/04/12 04:23:02;;;;;;;11.77;6.20;;;3.40;88.30;;;;;;5034410;28;20477;-70
2021/04/12 04:26:05;;;;;;;10.50;5.83;;;3.30;89.00;;;;;;5034533;28;20434;-71
2021/04/12 04:28:54;;;;;;;6.57;5.87;;;3.20;89.50;;;;;;5034200;28;20968;-70
2021/04/12 04:31:40;;;;;;;8.63;6.20;;;3.20;89.80;;;;;;5034073;28;20532;-69
2021/04/12 04:34:29;;;;;;;15.90;7.50;;;3.30;90.10;;;;;;5031881;28;20455;-70
2021/04/12 04:37:36;;;;;;;6.07;5.33;;;3.20;90.00;;;;;;5034433;28;20798;-70
2021/04/12 04:40:24;;;;;;;10.37;6.63;;;3.20;90.00;;;;;;5008775;28;20465;-70
2021/04/12 04:43:12;;;;;;;18.60;7.50;;;3.20;89.80;;;;;;5034043;28;20885;-70
2021/04/12 04:46:18;;;;;;;10.80;6.60;;;3.20;89.80;;;;;;5034173;28;20424;-70
2021/04/12 04:49:10;;;;;;;8.83;6.80;;;3.20;89.90;;;;;;5034178;28;20436;-70
2021/04/12 04:51:44;;;;;;;10.33;7.00;;;3.10;90.00;;;;;;5031224;28;20482;-70
2021/04/12 04:54:43;;;;;;;12.30;8.20;;;3.10;90.20;;;;;;5034033;28;20840;-70
2021/04/12 04:57:34;;;;;;;9.83;7.90;;;3.10;90.40;;;;;;5033996;28;20520;-69
2021/04/12 05:00:19;;;;;;;10.37;9.20;;;3.00;90.40;;;;;;5034074;28;20431;-70
2021/04/12 05:03:11;;;;;;;12.20;8.47;;;3.00;90.70;;;;;;5034055;28;20525;-70
2021/04/12 05:05:50;;;;;;;8.47;7.47;;;2.90;90.70;;;;;;5034005;28;20493;-70
2021/04/12 05:08:55;;;;;;;12.33;8.70;;;3.00;90.90;;;;;;5033890;28;20427;-70
2021/04/12 05:11:33;;;;;;;11.00;9.60;;;3.00;91.00;;;;;;5033443;28;20467;-70
2021/04/12 05:14:40;;;;;;;10.57;9.47;;;2.90;91.20;;;;;;5033780;28;20423;-70
2021/04/12 05:17:39;;;;;;;13.47;9.00;;;2.90;91.40;;;;;;5033457;28;20919;-70
2021/04/12 05:20:24;;;;;;;9.90;8.43;;;2.90;91.40;;;;;;5029853;28;20473;-70
2021/04/12 05:23:32;;;;;;;12.10;9.90;;;2.80;91.40;;;;;;5032532;28;20491;-70
2021/04/12 05:26:44;;;;;;;9.13;8.13;;;2.90;91.60;;;;;;5033638;28;20439;-70
2021/04/12 05:29:39;;;;;;;12.77;8.53;;;2.90;91.70;;;;;;5033908;28;20428;-70
2021/04/12 05:32:15;;;;;;;9.23;8.27;;;2.90;91.60;;;;;;5033427;28;20829;-71
2021/04/12 05:34:59;;;;;;;9.67;8.67;;;3.00;91.70;;;;;;5033467;28;20443;-70
2021/04/12 05:37:52;;;;;;;10.87;8.63;;;3.00;91.80;;;;;;5033158;28;20436;-70
2021/04/12 05:40:32;;;;;;;9.33;8.43;;;3.00;91.80;;;;;;5033462;28;20427;-70
2021/04/12 05:43:14;;;;;;;9.17;8.23;;;3.00;91.90;;;;;;5033440;28;20462;-70
2021/04/12 05:46:05;;;;;;;15.00;10.30;;;3.10;92.20;;;;;;5033418;28;20441;-70
2021/04/12 05:49:08;;;;;;;13.87;10.37;;;3.10;92.30;;;;;;5033513;28;20430;-70
2021/04/12 05:51:50;;;;;;;10.77;9.67;;;3.20;92.40;;;;;;5033326;28;20478;-71
2021/04/12 05:54:29;;;;;;;13.17;10.73;;;3.30;92.50;;;;;;5033330;28;20422;-71
2021/04/12 05:57:19;;;;;;;11.50;10.50;;;3.40;92.40;;;;;;5033331;28;20426;-71
2021/04/12 06:00:16;;;;;;;11.60;9.00;;;3.40;92.30;;;;;;5033344;28;20424;-70
2021/04/12 06:03:08;;;;;;;10.87;9.23;;;3.60;92.40;;;;;;5033164;28;20468;-71
2021/04/12 06:05:41;;;;;;;10.53;8.50;;;3.80;92.40;;;;;;5032972;28;20422;-71
2021/04/12 06:08:36;;;;;;;12.00;8.40;;;4.00;92.40;;;;;;5032908;28;20906;-71
2021/04/12 06:11:32;;;;;;;10.43;7.40;;;4.20;92.00;;;;;;5033133;28;20503;-71
2021/04/12 06:14:22;;;;;;;7.53;6.73;;;4.40;91.70;;;;;;5008158;28;20451;-71
2021/04/12 06:17:22;;;;;;;5.63;5.00;;;4.60;91.50;;;;;;5033092;28;20437;-71
2021/04/12 06:20:30;;;;;;;9.83;6.50;;;4.60;91.00;;;;;;5033009;28;20866;-70
2021/04/12 06:23:21;;;;;;;9.33;8.37;;;4.60;91.30;;;;;;5032620;28;20559;-71
2021/04/12 06:26:21;;;;;;;8.97;8.07;;;4.40;91.60;;;;;;5033081;28;20545;-70
2021/04/12 06:29:23;;;;;;;9.97;8.97;;;4.40;92.00;;;;;;5032973;28;20445;-70
2021/04/12 06:32:20;;;;;;;16.00;9.70;;;4.40;92.10;;;;;;5022563;28;20485;-71
2021/04/12 06:35:11;;;;;;;11.87;10.53;;;4.40;92.00;;;;;;5035529;28;21017;-71
2021/04/12 06:38:04;;;;;;;12.67;11.47;;;4.40;92.10;;;;;;5036583;28;20448;-71
2021/04/12 06:41:19;;;;;;;15.90;11.60;;;4.40;91.90;;;;;;5036500;28;20459;-71
2021/04/12 06:44:20;;;;;;;12.50;11.20;;;4.40;91.80;;;;;;5036536;28;20515;-71
2021/04/12 06:47:24;;;;;;;13.80;11.73;;;4.40;92.20;;;;;;5030960;28;20466;-71
2021/04/12 06:50:21;;;;;;;13.50;11.73;;;4.50;92.10;;;;;;5036409;28;20506;-71
2021/04/12 06:53:32;;;;;;;12.80;11.27;;;4.50;91.80;;;;;;5036293;28;20472;-71
2021/04/12 06:56:36;;;;;;;12.93;11.63;;;4.50;91.90;;;;;;5036001;28;20894;-71
2021/04/12 06:59:28;;;;;;;15.70;11.93;;;4.60;91.90;;;;;;5035937;28;20464;-71
2021/04/12 07:02:24;;;;;;;14.53;12.30;;;4.70;91.90;;;;;;5036638;28;20811;-71
2021/04/12 07:05:21;;;;;;;14.60;11.80;;;4.80;91.70;;;;;;5036064;28;20820;-72
2021/04/12 07:08:20;;;;;;;18.03;12.47;;;5.00;91.30;;;;;;5035847;28;20434;-70
2021/04/12 07:11:32;;;;;;;13.13;11.83;;;5.10;91.40;;;;;;5036056;28;20438;-70
2021/04/12 07:14:41;;;;;;;15.20;12.73;;;5.20;91.40;;;;;;5035957;28;20454;-71
2021/04/12 07:17:50;;;;;;;19.40;12.30;;;5.30;90.70;;;;;;5036043;28;20469;-71
2021/04/12 07:20:31;;;;;;;15.13;12.23;;;5.20;90.70;;;;;;4974687;28;20460;-72
2021/04/12 07:23:28;;;;;;;14.57;13.07;;;5.20;91.40;;;;;;5027124;28;20485;-72
2021/04/12 07:26:30;;;;;;;19.77;14.97;;;5.30;91.70;;;;;;5036087;28;20439;-71
2021/04/12 07:29:24;;;;;;;17.23;14.73;;;5.30;90.90;;;;;;5033147;28;20460;-71
2021/04/12 07:32:10;;;;;;;14.77;13.23;;;5.40;90.90;;;;;;5035706;28;20462;-70
2021/04/12 07:35:16;;;;;;;18.90;13.77;;;5.30;90.90;;;;;;5035425;28;20904;-72
2021/04/12 07:38:12;;;;;;;15.23;13.63;;;5.40;91.20;;;;;;4974424;28;20455;-72
2021/04/12 07:41:24;;;;;;;15.60;12.10;;;5.60;91.40;;;;;;5035631;28;20795;-71
2021/04/12 07:44:28;;;;;;;15.30;11.83;;;5.70;90.40;;;;;;5035133;28;20964;-72
2021/04/12 07:47:32;;;;;;;13.80;12.30;;;5.70;90.00;;;;;;5034946;28;20476;-72
2021/04/12 07:50:42;;;;;;;13.87;11.00;;;5.70;90.00;;;;;;5035082;28;20521;-72
2021/04/12 07:53:56;;;;;;;13.60;11.13;;;5.80;89.70;;;;;;5035193;28;20838;-72
2021/04/12 07:57:15;;;;;;;15.53;11.63;;;5.90;89.40;;;;;;5008794;28;20448;-72
2021/04/12 08:00:14;;;;;;;12.47;11.17;;;5.90;88.60;;;;;;5034812;28;20477;-71
2021/04/12 08:03:08;;;;;;;15.40;11.90;;;5.90;89.30;;;;;;5009955;28;20529;-72
2021/04/12 08:06:13;;;;;;;14.53;11.23;;;6.10;90.00;;;;;;5034998;28;20466;-72
2021/04/12 08:09:24;;;;;;;15.10;12.53;;;6.30;88.70;;;;;;5024542;28;20453;-71
2021/04/12 08:12:29;;;;;;;15.90;13.27;;;6.30;88.20;;;;;;5034782;28;20536;-72
2021/04/12 08:15:29;;;;;;;15.83;13.90;;;6.40;88.90;;;;;;5035679;28;20772;-71
2021/04/12 08:18:30;;;;;;;13.53;12.10;;;6.40;88.20;;;;;;5034878;28;20492;-71
2021/04/12 08:21:35;;;;;;;16.93;14.07;;;6.40;87.20;;;;;;5035337;28;20437;-71
2021/04/12 08:24:42;;;;;;;14.50;13.00;;;6.40;87.70;;;;;;5034621;28;20520;-72
2021/04/12 08:27:36;;;;;;;14.43;12.97;;;6.50;88.70;;;;;;5034847;28;20435;-72
2021/04/12 08:30:39;;;;;;;15.17;12.87;;;6.70;88.10;;;;;;5034561;28;20439;-72
2021/04/12 08:33:51;;;;;;;14.30;12.93;;;6.80;86.30;;;;;;5034423;28;20470;-72
2021/04/12 08:36:59;;;;;;;16.40;12.50;;;6.70;86.50;;;;;;5034381;28;20434;-72
2021/04/12 08:40:13;;;;;;;15.50;11.17;;;6.80;86.10;;;;;;5034483;28;20517;-72
2021/04/12 08:43:07;;;;;;;11.50;10.33;;;6.90;86.90;;;;;;5034285;28;20515;-72
2021/04/12 08:46:28;;;;;;;9.50;8.17;;;7.20;86.90;;;;;;5034298;28;20466;-72
2021/04/12 08:49:31;;;;;;;8.43;7.60;;;7.30;84.20;;;;;;5035041;28;20753;-72
2021/04/12 08:52:31;;;;;;;8.50;7.70;;;7.50;82.80;;;;;;5034050;28;20462;-72
2021/04/12 08:55:32;;;;;;;8.07;7.37;;;7.80;82.90;;;;;;5028901;28;20481;-71
2021/04/12 08:58:14;;;;;;;8.67;7.77;;;8.00;81.70;;;;;;5034040;28;20439;-71
2021/04/12 09:01:20;;;;;;;7.73;7.10;;;7.90;80.20;;;;;;5034062;28;20431;-71
2021/04/12 09:04:13;;;;;;;6.40;5.90;;;8.00;80.90;;;;;;5033713;28;20904;-71
2021/04/12 09:07:17;;;;;;;6.70;6.00;;;7.90;79.30;;;;;;5033672;28;20908;-71
2021/04/12 09:10:08;;;;;;;8.53;6.00;;;7.80;79.10;;;;;;5033859;28;20438;-72
2021/04/12 09:12:52;;;;;;;7.40;5.70;;;7.90;80.10;;;;;;5020849;28;20470;-72
2021/04/12 09:15:50;;;;;;;5.43;5.03;;;7.90;79.10;;;;;;5033883;28;20810;-72
2021/04/12 09:18:53;;;;;;;4.83;4.43;;;8.00;80.10;;;;;;5033803;28;20430;-72
2021/04/12 09:22:04;;;;;;;4.87;4.40;;;8.20;80.10;;;;;;5033920;28;20478;-71
2021/04/12 09:24:58;;;;;;;6.23;4.10;;;8.40;78.60;;;;;;4986884;28;20540;-71
2021/04/12 09:27:51;;;;;;;7.50;3.43;;;8.60;76.50;;;;;;5000914;28;20538;-71
2021/04/12 09:30:47;;;;;;;5.83;2.87;;;8.50;74.70;;;;;;5033618;28;20441;-71
2021/04/12 09:33:44;;;;;;;5.00;2.80;;;8.60;76.80;;;;;;5030865;28;20811;-72
2021/04/12 09:36:33;;;;;;;4.00;3.00;;;8.70;74.50;;;;;;5030651;28;20454;-72
2021/04/12 09:39:34;;;;;;;2.67;2.33;;;8.90;72.80;;;;;;5034010;28;20425;-72
2021/04/12 09:42:48;;;;;;;4.07;2.47;;;9.10;70.30;;;;;;5033599;28;20473;-73
2021/04/12 09:45:40;;;;;;;2.90;2.00;;;9.50;70.50;;;;;;5033534;28;20569;-72
2021/04/12 09:48:56;;;;;;;3.23;1.53;;;9.90;65.70;;;;;;5033531;28;20430;-72
2021/04/12 09:51:45;;;;;;;6.87;1.87;;;9.90;61.70;;;;;;5018001;28;20996;-73
2021/04/12 09:54:44;;;;;;;2.77;2.07;;;10.10;61.90;;;;;;5033584;28;20449;-73
2021/04/12 09:57:45;;;;;;;2.10;1.70;;;10.60;60.20;;;;;;5033401;28;20454;-72
2021/04/12 10:00:35;;;;;;;2.13;1.80;;;11.00;56.70;;;;;;5034021;28;20822;-72
2021/04/12 10:03:41;;;;;;;4.37;2.37;;;10.90;55.40;;;;;;5033005;28;21003;-72
2021/04/12 10:06:42;;;;;;;1.97;1.70;;;10.40;55.30;;;;;;5033339;28;20797;-72
2021/04/12 10:09:24;;;;;;;3.90;2.00;;;9.70;57.20;;;;;;4974446;28;20484;-72
2021/04/12 10:11:55;;;;;;;4.10;2.67;;;9.40;58.90;;;;;;5031381;28;20505;-72
2021/04/12 10:14:27;;;;;;;4.67;2.63;;;9.10;61.90;;;;;;5037232;28;20427;-72
2021/04/12 10:17:00;;;;;;;2.83;2.60;;;8.80;63.00;;;;;;5037479;28;20458;-72
2021/04/12 10:19:41;;;;;;;4.60;3.20;;;8.70;64.80;;;;;;5038149;28;20425;-72
2021/04/12 10:22:12;;;;;;;5.90;3.10;;;8.30;66.50;;;;;;5036847;28;20987;-72
2021/04/12 10:24:51;;;;;;;4.43;3.10;;;7.70;71.50;;;;;;5036829;28;20469;-72
2021/04/12 10:27:21;;;;;;;4.13;3.07;;;7.40;74.60;;;;;;5036576;28;20441;-71
2021/04/12 10:29:53;;;;;;;4.43;2.67;;;7.10;76.10;;;;;;5036917;28;20430;-71
2021/04/12 10:32:24;;;;;;;3.20;2.83;;;7.20;80.20;;;;;;5036679;28;20585;-72
2021/04/12 10:34:58;;;;;;;3.93;2.10;;;7.80;81.10;;;;;;5036938;28;20458;-72
2021/04/12 10:37:36;;;;;;;2.90;2.13;;;8.60;76.30;;;;;;5036543;28;20407;-72
2021/04/12 10:40:11;;;;;;;5.10;2.40;;;9.20;71.80;;;;;;5036649;28;20430;-72
2021/04/12 10:42:56;;;;;;;3.13;1.97;;;10.10;70.10;;;;;;5036507;28;20878;-72
2021/04/12 10:45:25;;;;;;;1.97;1.77;;;11.10;62.90;;;;;;5036221;28;20478;-72
2021/04/12 10:47:58;;;;;;;2.57;1.90;;;12.10;55.10;;;;;;5036488;28;20954;-72
2021/04/12 10:50:46;;;;;;;1.87;1.77;;;12.80;53.30;;;;;;5037235;28;20438;-73
2021/04/12 10:53:42;;;;;;;2.30;1.70;;;13.90;52.30;;;;;;5026069;28;20481;-73
2021/04/12 10:56:15;;;;;;;1.83;1.27;;;14.90;48.10;;;;;;5036041;28;20924;-73
2021/04/12 10:59:04;;;;;;;1.37;1.27;;;16.10;45.20;;;;;;5036327;28;20435;-72
2021/04/12 11:01:40;;;;;;;2.30;1.07;;;16.70;42.30;;;;;;5036432;28;20470;-72
2021/04/12 11:04:28;;;;;;;2.20;1.13;;;17.80;40.00;;;;;;5036153;28;20466;-72
2021/04/12 11:07:17;;;;;;;2.23;1.10;;;18.00;37.30;;;;;;5036143;28;20442;-73
2021/04/12 11:09:59;;;;;;;3.73;1.60;;;18.80;38.10;;;;;;5031891;28;20948;-72
2021/04/12 11:12:58;;;;;;;6.50;1.93;;;19.20;35.10;;;;;;5036041;28;20520;-73
2021/04/12 11:16:09;;;;;;;3.23;1.50;;;17.50;34.30;;;;;;5002647;28;20454;-73
2021/04/12 11:18:44;;;;;;;1.83;1.73;;;16.30;39.90;;;;;;5000240;28;20464;-72
2021/04/12 11:21:21;;;;;;;2.00;1.40;;;14.80;44.20;;;;;;5034406;28;20825;-73
2021/04/12 11:23:59;;;;;;;1.93;1.60;;;13.70;46.80;;;;;;5035692;28;20434;-73
2021/04/12 11:26:32;;;;;;;2.60;2.20;;;13.00;49.30;;;;;;5035515;28;20961;-72
2021/04/12 11:29:02;;;;;;;2.13;1.83;;;12.50;51.50;;;;;;5035755;28;20462;-72
2021/04/12 11:31:42;;;;;;;2.93;2.10;;;12.20;53.20;;;;;;5035671;28;20485;-72
2021/04/12 11:34:25;;;;;;;2.13;1.80;;;12.20;54.60;;;;;;5035810;28;20430;-72
2021/04/12 11:37:08;;;;;;;2.20;1.97;;;12.50;55.30;;;;;;5035562;28;20430;-72
2021/04/12 11:39:36;;;;;;;1.97;1.80;;;12.80;54.40;;;;;;5035551;28;20497;-72
2021/04/12 11:42:07;;;;;;;3.17;2.40;;;13.10;54.50;;;;;;5035140;28;20467;-73
2021/04/12 11:44:39;;;;;;;2.37;1.93;;;13.20;53.50;;;;;;5035386;28;20469;-73
2021/04/12 11:47:28;;;;;;;1.97;1.67;;;13.20;53.70;;;;;;5035328;28;20793;-72
2021/04/12 11:50:17;;;;;;;2.33;2.13;;;13.10;51.80;;;;;;5035332;28;20435;-73
2021/04/12 11:52:53;;;;;;;3.27;2.27;;;12.70;51.90;;;;;;5035426;28;20814;-72
2021/04/12 11:55:28;;;;;;;3.90;1.30;;;12.10;51.30;;;;;;5035208;28;20425;-71
2021/04/12 11:58:04;;;;;;;4.23;1.93;;;10.70;52.20;;;;;;5035151;28;20465;-71
2021/04/12 12:00:34;;;;;;;1.53;1.40;;;9.80;55.90;;;;;;5034828;28;20896;-71
2021/04/12 12:03:26;;;;;;;3.77;1.77;;;9.50;58.30;;;;;;5034917;28;20466;-70
2021/04/12 12:06:07;;;;;;;3.17;1.43;;;9.60;59.10;;;;;;5033998;28;20995;-69
2021/04/12 12:08:48;;;;;;;3.27;1.43;;;10.40;57.20;;;;;;5034706;28;20913;-70
2021/04/12 12:11:23;;;;;;;2.77;1.30;;;10.70;55.70;;;;;;5034860;28;20473;-72
2021/04/12 12:13:55;;;;;;;1.20;1.10;;;11.50;55.50;;;;;;5034936;28;20438;-72
2021/04/12 12:16:27;;;;;;;2.03;1.30;;;13.00;54.00;;;;;;5034885;28;20799;-72
2021/04/12 12:18:59;;;;;;;1.50;1.20;;;15.00;51.60;;;;;;5034737;28;20430;-73
2021/04/12 12:21:30;;;;;;;1.63;1.30;;;17.00;47.30;;;;;;5034454;28;20999;-73
2021/04/12 12:24:09;;;;;;;3.80;1.33;;;18.60;42.50;;;;;;5034621;28;20427;-73
2021/04/12 12:26:41;;;;;;;1.17;1.17;;;19.80;40.20;;;;;;5034629;28;20431;-72
2021/04/12 12:29:18;;;;;;;3.77;1.27;;;20.00;37.20;;;;;;5034866;28;20449;-72
2021/04/12 12:32:05;;;;;;;0.90;0.70;;;19.30;37.50;;;;;;5034182;28;20470;-73
2021/04/12 12:34:42;;;;;;;1.43;1.33;;;18.50;39.00;;;;;;5034543;28;20446;-72
2021/04/12 12:37:20;;;;;;;3.30;2.13;;;17.10;39.70;;;;;;5034431;28;20438;-72
2021/04/12 12:39:50;;;;;;;2.00;1.43;;;16.20;42.10;;;;;;5034414;28;20454;-73
2021/04/12 12:42:23;;;;;;;3.17;1.53;;;15.60;45.00;;;;;;5033987;28;20975;-73
2021/04/12 12:44:54;;;;;;;2.73;1.50;;;15.30;45.70;;;;;;5034190;28;20467;-73
2021/04/12 12:47:23;;;;;;;1.83;1.67;;;15.50;45.30;;;;;;5034020;28;20435;-73
2021/04/12 12:49:54;;;;;;;2.77;1.80;;;15.80;45.60;;;;;;5034126;28;20516;-73
2021/04/12 12:52:27;;;;;;;1.93;1.80;;;15.30;45.20;;;;;;5034108;28;20489;-72
2021/04/12 12:54:58;;;;;;;3.70;1.70;;;14.70;46.10;;;;;;5034130;28;20427;-72
2021/04/12 12:57:30;;;;;;;1.70;1.60;;;13.10;46.50;;;;;;5034259;28;20445;-72
2021/04/12 12:59:59;;;;;;;1.63;1.50;;;12.10;51.10;;;;;;5033875;28;20466;-71
2021/04/12 13:02:34;;;;;;;1.40;1.30;;;11.50;51.30;;;;;;5033877;28;20471;-71
2021/04/12 13:05:07;;;;;;;2.87;1.60;;;11.40;52.00;;;;;;5033937;28;20502;-71
2021/04/12 13:07:35;;;;;;;1.80;1.50;;;11.00;51.80;;;;;;5034068;28;20435;-71
2021/04/12 13:10:07;;;;;;;3.57;1.63;;;10.80;53.30;;;;;;5034143;28;20447;-71
2021/04/12 13:12:36;;;;;;;1.67;1.57;;;11.00;54.70;;;;;;5034298;28;20478;-71
2021/04/12 13:15:29;;;;;;;1.57;1.47;;;11.00;53.50;;;;;;5033827;28;20446;-71
2021/04/12 13:18:07;;;;;;;5.33;1.43;;;11.70;55.70;;;;;;5031528;28;20454;-71
2021/04/12 13:20:37;;;;;;;1.30;1.20;;;13.00;52.80;;;;;;5033593;28;20458;-72
2021/04/12 13:23:08;;;;;;;1.43;1.33;;;14.20;50.50;;;;;;5033484;28;20516;-71
2021/04/12 13:25:38;;;;;;;1.83;1.50;;;15.30;45.70;;;;;;5033936;28;20840;-71
2021/04/12 13:28:12;;;;;;;1.70;1.30;;;15.20;42.20;;;;;;5033657;28;20450;-71
2021/04/12 13:30:41;;;;;;;1.73;1.60;;;15.40;43.30;;;;;;5033664;28;20439;-71
2021/04/12 13:33:12;;;;;;;1.67;1.57;;;15.90;41.80;;;;;;5033249;28;20459;-72
2021/04/12 13:35:42;;;;;;;1.50;1.40;;;16.10;40.00;;;;;;5033694;28;20464;-72
2021/04/12 13:38:13;;;;;;;1.87;1.30;;;16.50;39.50;;;;;;5033732;28;20458;-71
2021/04/12 13:40:49;;;;;;;1.40;1.30;;;16.40;38.10;;;;;;5033216;28;20966;-72
2021/04/12 13:43:18;;;;;;;1.53;1.43;;;15.30;40.50;;;;;;5032862;28;20505;-71
2021/04/12 13:45:48;;;;;;;2.10;2.00;;;14.20;41.60;;;;;;5033637;28;20475;-71
2021/04/12 13:48:22;;;;;;;4.93;1.97;;;13.40;43.80;;;;;;5033424;28;20447;-72
2021/04/12 13:50:54;;;;;;;2.20;2.00;;;13.20;45.00;;;;;;5033123;28;20962;-71
2021/04/12 13:53:28;;;;;;;2.13;2.03;;;13.60;45.50;;;;;;5033344;28;20470;-71
2021/04/12 13:56:04;;;;;;;2.30;1.93;;;14.30;43.90;;;;;;5033044;28;20798;-71
2021/04/12 13:58:34;;;;;;;2.43;2.23;;;14.90;43.40;;;;;;5033359;28;20445;-71
2021/04/12 14:01:05;;;;;;;2.10;2.00;;;15.20;41.20;;;;;;5033335;28;20431;-72
2021/04/12 14:03:38;;;;;;;3.30;1.80;;;15.20;42.80;;;;;;5033989;28;20443;-71
2021/04/12 14:06:07;;;;;;;2.27;2.17;;;15.10;41.90;;;;;;5032967;28;20520;-72
2021/04/12 14:08:42;;;;;;;4.03;2.57;;;14.30;41.80;;;;;;5033341;28;20469;-72
2021/04/12 14:11:20;;;;;;;1.73;1.63;;;13.70;44.00;;;;;;5033169;28;20430;-72
2021/04/12 14:13:51;;;;;;;2.00;1.90;;;13.70;42.80;;;;;;5032966;28;20905;-71
2021/04/12 14:16:20;;;;;;;2.03;1.50;;;13.40;43.20;;;;;;5033191;28;20478;-72
2021/04/12 14:18:49;;;;;;;2.07;1.73;;;13.80;44.60;;;;;;5032860;28;20447;-71
2021/04/12 14:21:23;;;;;;;3.83;1.70;;;14.20;43.20;;;;;;5032871;28;20454;-72
2021/04/12 14:23:57;;;;;;;1.20;1.20;;;14.30;41.00;;;;;;5032960;28;20799;-71
2021/04/12 14:26:27;;;;;;;1.80;1.70;;;13.40;41.50;;;;;;5032862;28;20470;-71
2021/04/12 14:28:56;;;;;;;2.00;1.90;;;13.10;45.40;;;;;;5033006;28;20438;-72
2021/04/12 14:31:26;;;;;;;1.37;1.27;;;13.10;43.70;;;;;;5032893;28;20426;-75